sensor_id;sensor_type;location;lat;lon;timestamp;P1;durP1;ratioP1;P2;durP2;ratioP2
31716;SDS011;18301;51.076;17.046;2022-07-04T00:04:15;9.80;;;7.80;;
31716;SDS011;18301;51.076;17.046;2022-07-04T00:09:17;8.50;;;7.43;;
31716;SDS011;18301;51.076;17.046;2022-07-04T00:14:18;9.70;;;7.00;;
31716;SDS011;18301;51.076;17.046;2022-07-04T00:19:20;12.13;;;7.43;;
31716;SDS011;18301;51.076;17.046;2022-07-04T00:24:21;9.63;;;8.18;;
31716;SDS011;18301;51.076;17.046;2022-07-04T00:29:23;10.05;;;8.40;;
31716;SDS011;18301;51.076;17.046;2022-07-04T00:34:24;8.32;;;7.47;;
31716;SDS011;18301;51.076;17.046;2022-07-04T00:39:26;8.43;;;7.50;;
31716;SDS011;18301;51.076;17.046;2022-07-04T00:44:28;8.32;;;7.32;;
31716;SDS011;18301;51.076;17.046;2022-07-04T00:49:31;9.45;;;7.93;;
31716;SDS011;18301;51.076;17.046;2022-07-04T00:54:33;10.18;;;8.40;;
31716;SDS011;18301;51.076;17.046;2022-07-04T00:59:35;11.40;;;8.48;;
31716;SDS011;18301;51.076;17.046;2022-07-04T01:04:37;9.63;;;8.35;;
31716;SDS011;18301;51.076;17.046;2022-07-04T01:09:38;9.73;;;8.13;;
31716;SDS011;18301;51.076;17.046;2022-07-04T01:14:40;9.00;;;7.47;;
31716;SDS011;18301;51.076;17.046;2022-07-04T01:19:42;10.23;;;7.88;;
31716;SDS011;18301;51.076;17.046;2022-07-04T01:24:43;9.57;;;8.32;;
31716;SDS011;18301;51.076;17.046;2022-07-04T01:29:45;10.68;;;8.38;;
31716;SDS011;18301;51.076;17.046;2022-07-04T01:34:47;10.10;;;8.93;;
31716;SDS011;18301;51.076;17.046;2022-07-04T01:39:49;10.13;;;8.52;;
31716;SDS011;18301;51.076;17.046;2022-07-04T01:44:50;11.25;;;8.38;;
31716;SDS011;18301;51.076;17.046;2022-07-04T01:49:52;10.40;;;9.23;;
31716;SDS011;18301;51.076;17.046;2022-07-04T01:54:53;9.95;;;8.80;;
31716;SDS011;18301;51.076;17.046;2022-07-04T01:59:55;11.88;;;9.77;;
31716;SDS011;18301;51.076;17.046;2022-07-04T02:05:16;12.27;;;8.18;;
31716;SDS011;18301;51.076;17.046;2022-07-04T02:10:19;12.15;;;9.00;;
31716;SDS011;18301;51.076;17.046;2022-07-04T02:15:21;10.30;;;9.20;;
31716;SDS011;18301;51.076;17.046;2022-07-04T02:20:23;9.88;;;8.60;;
31716;SDS011;18301;51.076;17.046;2022-07-04T02:25:25;11.30;;;8.50;;
31716;SDS011;18301;51.076;17.046;2022-07-04T02:30:26;8.55;;;7.45;;
31716;SDS011;18301;51.076;17.046;2022-07-04T02:35:28;9.45;;;7.68;;
31716;SDS011;18301;51.076;17.046;2022-07-04T02:40:29;12.60;;;7.63;;
31716;SDS011;18301;51.076;17.046;2022-07-04T02:45:31;11.05;;;8.38;;
31716;SDS011;18301;51.076;17.046;2022-07-04T02:50:32;12.20;;;9.05;;
31716;SDS011;18301;51.076;17.046;2022-07-04T02:55:34;10.95;;;8.38;;
31716;SDS011;18301;51.076;17.046;2022-07-04T03:00:35;10.40;;;8.68;;
31716;SDS011;18301;51.076;17.046;2022-07-04T03:05:37;12.75;;;9.02;;
31716;SDS011;18301;51.076;17.046;2022-07-04T03:10:38;11.65;;;8.75;;
31716;SDS011;18301;51.076;17.046;2022-07-04T03:15:40;10.40;;;8.57;;
31716;SDS011;18301;51.076;17.046;2022-07-04T03:20:41;11.80;;;8.77;;
31716;SDS011;18301;51.076;17.046;2022-07-04T03:25:43;11.98;;;9.13;;
31716;SDS011;18301;51.076;17.046;2022-07-04T03:30:45;12.18;;;9.18;;
31716;SDS011;18301;51.076;17.046;2022-07-04T03:35:46;10.55;;;8.68;;
31716;SDS011;18301;51.076;17.046;2022-07-04T03:40:48;12.85;;;9.05;;
31716;SDS011;18301;51.076;17.046;2022-07-04T03:45:49;10.10;;;8.88;;
31716;SDS011;18301;51.076;17.046;2022-07-04T03:50:51;13.30;;;9.13;;
31716;SDS011;18301;51.076;17.046;2022-07-04T03:55:52;11.02;;;8.88;;
31716;SDS011;18301;51.076;17.046;2022-07-04T04:00:54;10.95;;;8.88;;
31716;SDS011;18301;51.076;17.046;2022-07-04T04:05:56;10.25;;;8.90;;
31716;SDS011;18301;51.076;17.046;2022-07-04T04:10:57;9.93;;;8.23;;
31716;SDS011;18301;51.076;17.046;2022-07-04T04:15:59;8.57;;;7.68;;
31716;SDS011;18301;51.076;17.046;2022-07-04T04:21:00;11.27;;;7.30;;
31716;SDS011;18301;51.076;17.046;2022-07-04T04:26:01;9.32;;;8.00;;
31716;SDS011;18301;51.076;17.046;2022-07-04T04:31:03;9.30;;;7.40;;
31716;SDS011;18301;51.076;17.046;2022-07-04T04:36:05;8.68;;;6.57;;
31716;SDS011;18301;51.076;17.046;2022-07-04T04:41:06;8.43;;;7.18;;
31716;SDS011;18301;51.076;17.046;2022-07-04T04:46:08;10.65;;;7.35;;
31716;SDS011;18301;51.076;17.046;2022-07-04T04:51:10;11.07;;;7.22;;
31716;SDS011;18301;51.076;17.046;2022-07-04T04:56:12;10.48;;;6.40;;
31716;SDS011;18301;51.076;17.046;2022-07-04T05:01:14;7.05;;;6.35;;
31716;SDS011;18301;51.076;17.046;2022-07-04T05:06:35;10.35;;;6.28;;
31716;SDS011;18301;51.076;17.046;2022-07-04T05:11:37;11.05;;;5.68;;
31716;SDS011;18301;51.076;17.046;2022-07-04T05:16:38;8.00;;;5.78;;
31716;SDS011;18301;51.076;17.046;2022-07-04T05:21:40;9.63;;;5.50;;
31716;SDS011;18301;51.076;17.046;2022-07-04T05:26:42;11.07;;;6.03;;
31716;SDS011;18301;51.076;17.046;2022-07-04T05:31:43;7.45;;;5.40;;
31716;SDS011;18301;51.076;17.046;2022-07-04T05:36:45;6.68;;;5.05;;
31716;SDS011;18301;51.076;17.046;2022-07-04T05:41:46;5.75;;;4.43;;
31716;SDS011;18301;51.076;17.046;2022-07-04T05:46:48;6.07;;;4.85;;
31716;SDS011;18301;51.076;17.046;2022-07-04T05:51:49;8.30;;;4.43;;
31716;SDS011;18301;51.076;17.046;2022-07-04T05:56:51;10.30;;;5.07;;
31716;SDS011;18301;51.076;17.046;2022-07-04T06:01:52;6.03;;;4.20;;
31716;SDS011;18301;51.076;17.046;2022-07-04T06:06:54;8.13;;;4.85;;
31716;SDS011;18301;51.076;17.046;2022-07-04T06:11:56;7.35;;;4.45;;
31716;SDS011;18301;51.076;17.046;2022-07-04T06:16:57;6.63;;;3.65;;
31716;SDS011;18301;51.076;17.046;2022-07-04T06:21:59;7.32;;;3.80;;
31716;SDS011;18301;51.076;17.046;2022-07-04T06:27:00;9.32;;;3.90;;
31716;SDS011;18301;51.076;17.046;2022-07-04T06:32:04;3.88;;;3.35;;
31716;SDS011;18301;51.076;17.046;2022-07-04T06:37:06;4.47;;;3.05;;
31716;SDS011;18301;51.076;17.046;2022-07-04T06:42:07;5.40;;;3.53;;
31716;SDS011;18301;51.076;17.046;2022-07-04T06:47:09;3.83;;;3.38;;
31716;SDS011;18301;51.076;17.046;2022-07-04T06:52:11;5.22;;;3.20;;
31716;SDS011;18301;51.076;17.046;2022-07-04T06:57:12;6.20;;;3.30;;
31716;SDS011;18301;51.076;17.046;2022-07-04T07:02:33;4.72;;;3.70;;
31716;SDS011;18301;51.076;17.046;2022-07-04T07:07:38;6.00;;;3.08;;
31716;SDS011;18301;51.076;17.046;2022-07-04T07:12:39;5.82;;;3.67;;
31716;SDS011;18301;51.076;17.046;2022-07-04T07:17:41;4.55;;;3.40;;
31716;SDS011;18301;51.076;17.046;2022-07-04T07:22:42;4.90;;;3.17;;
31716;SDS011;18301;51.076;17.046;2022-07-04T07:27:44;4.32;;;3.63;;
31716;SDS011;18301;51.076;17.046;2022-07-04T07:32:45;6.10;;;3.30;;
31716;SDS011;18301;51.076;17.046;2022-07-04T07:37:47;5.47;;;3.78;;
31716;SDS011;18301;51.076;17.046;2022-07-04T07:42:48;4.15;;;3.30;;
31716;SDS011;18301;51.076;17.046;2022-07-04T07:47:51;5.07;;;3.67;;
31716;SDS011;18301;51.076;17.046;2022-07-04T07:52:52;4.43;;;3.67;;
31716;SDS011;18301;51.076;17.046;2022-07-04T07:57:54;7.40;;;4.32;;
31716;SDS011;18301;51.076;17.046;2022-07-04T08:02:55;12.25;;;3.85;;
31716;SDS011;18301;51.076;17.046;2022-07-04T08:08:16;8.98;;;4.03;;
31716;SDS011;18301;51.076;17.046;2022-07-04T08:13:17;5.72;;;3.72;;
31716;SDS011;18301;51.076;17.046;2022-07-04T08:18:18;4.93;;;3.90;;
31716;SDS011;18301;51.076;17.046;2022-07-04T08:23:20;4.55;;;3.80;;
31716;SDS011;18301;51.076;17.046;2022-07-04T08:28:22;5.85;;;3.45;;
31716;SDS011;18301;51.076;17.046;2022-07-04T08:33:23;5.00;;;3.83;;
31716;SDS011;18301;51.076;17.046;2022-07-04T08:38:25;6.45;;;4.05;;
31716;SDS011;18301;51.076;17.046;2022-07-04T08:43:27;8.60;;;3.90;;
31716;SDS011;18301;51.076;17.046;2022-07-04T08:48:33;5.70;;;3.78;;
31716;SDS011;18301;51.076;17.046;2022-07-04T08:53:37;4.35;;;3.90;;
31716;SDS011;18301;51.076;17.046;2022-07-04T08:58:42;5.90;;;4.68;;
31716;SDS011;18301;51.076;17.046;2022-07-04T09:03:46;5.82;;;4.18;;
31716;SDS011;18301;51.076;17.046;2022-07-04T09:08:47;4.97;;;4.47;;
31716;SDS011;18301;51.076;17.046;2022-07-04T09:13:49;5.05;;;4.22;;
31716;SDS011;18301;51.076;17.046;2022-07-04T09:18:50;5.07;;;4.60;;
31716;SDS011;18301;51.076;17.046;2022-07-04T09:23:55;6.35;;;4.85;;
31716;SDS011;18301;51.076;17.046;2022-07-04T09:28:57;5.55;;;5.05;;
31716;SDS011;18301;51.076;17.046;2022-07-04T09:33:59;6.15;;;4.43;;
31716;SDS011;18301;51.076;17.046;2022-07-04T09:39:15;6.30;;;5.25;;
31716;SDS011;18301;51.076;17.046;2022-07-04T09:44:23;7.20;;;5.00;;
31716;SDS011;18301;51.076;17.046;2022-07-04T09:49:26;6.13;;;5.40;;
31716;SDS011;18301;51.076;17.046;2022-07-04T09:54:28;6.28;;;5.70;;
31716;SDS011;18301;51.076;17.046;2022-07-04T09:59:33;7.10;;;5.60;;
31716;SDS011;18301;51.076;17.046;2022-07-04T10:09:50;7.05;;;6.35;;
31716;SDS011;18301;51.076;17.046;2022-07-04T10:14:51;6.75;;;6.03;;
31716;SDS011;18301;51.076;17.046;2022-07-04T10:19:54;7.00;;;6.40;;
31716;SDS011;18301;51.076;17.046;2022-07-04T10:24:56;11.30;;;7.07;;
31716;SDS011;18301;51.076;17.046;2022-07-04T10:29:58;8.10;;;6.25;;
31716;SDS011;18301;51.076;17.046;2022-07-04T10:35:00;6.97;;;5.90;;
31716;SDS011;18301;51.076;17.046;2022-07-04T10:40:03;6.50;;;6.00;;
31716;SDS011;18301;51.076;17.046;2022-07-04T10:45:05;9.75;;;6.20;;
31716;SDS011;18301;51.076;17.046;2022-07-04T10:50:10;10.82;;;5.88;;
31716;SDS011;18301;51.076;17.046;2022-07-04T10:55:11;6.20;;;5.70;;
31716;SDS011;18301;51.076;17.046;2022-07-04T11:00:13;7.60;;;5.93;;
31716;SDS011;18301;51.076;17.046;2022-07-04T11:05:15;6.25;;;5.57;;
31716;SDS011;18301;51.076;17.046;2022-07-04T11:10:19;6.22;;;5.32;;
31716;SDS011;18301;51.076;17.046;2022-07-04T11:20:35;6.03;;;5.38;;
31716;SDS011;18301;51.076;17.046;2022-07-04T11:25:40;6.05;;;5.53;;
31716;SDS011;18301;51.076;17.046;2022-07-04T11:30:50;8.35;;;5.43;;
31716;SDS011;18301;51.076;17.046;2022-07-04T11:36:03;6.53;;;5.88;;
31716;SDS011;18301;51.076;17.046;2022-07-04T11:41:17;6.68;;;5.65;;
31716;SDS011;18301;51.076;17.046;2022-07-04T11:46:38;7.63;;;5.50;;
31716;SDS011;18301;51.076;17.046;2022-07-04T11:51:43;6.70;;;5.55;;
31716;SDS011;18301;51.076;17.046;2022-07-04T11:56:45;6.28;;;5.20;;
31716;SDS011;18301;51.076;17.046;2022-07-04T12:01:47;8.57;;;5.60;;
31716;SDS011;18301;51.076;17.046;2022-07-04T12:06:48;6.15;;;5.35;;
31716;SDS011;18301;51.076;17.046;2022-07-04T12:11:54;8.77;;;5.75;;
31716;SDS011;18301;51.076;17.046;2022-07-04T12:17:10;7.18;;;5.90;;
31716;SDS011;18301;51.076;17.046;2022-07-04T12:22:12;5.20;;;4.70;;
31716;SDS011;18301;51.076;17.046;2022-07-04T12:27:17;5.32;;;4.82;;
31716;SDS011;18301;51.076;17.046;2022-07-04T12:32:20;5.25;;;4.05;;
31716;SDS011;18301;51.076;17.046;2022-07-04T12:37:22;5.97;;;4.15;;
31716;SDS011;18301;51.076;17.046;2022-07-04T12:42:24;5.78;;;4.63;;
31716;SDS011;18301;51.076;17.046;2022-07-04T12:47:33;5.90;;;4.35;;
31716;SDS011;18301;51.076;17.046;2022-07-04T12:52:45;5.85;;;4.60;;
31716;SDS011;18301;51.076;17.046;2022-07-04T12:57:46;5.72;;;4.63;;
31716;SDS011;18301;51.076;17.046;2022-07-04T13:02:49;4.95;;;4.20;;
31716;SDS011;18301;51.076;17.046;2022-07-04T13:07:51;4.90;;;4.40;;
31716;SDS011;18301;51.076;17.046;2022-07-04T13:12:53;6.30;;;5.00;;
31716;SDS011;18301;51.076;17.046;2022-07-04T13:17:54;6.38;;;4.60;;
31716;SDS011;18301;51.076;17.046;2022-07-04T13:22:56;7.95;;;4.28;;
31716;SDS011;18301;51.076;17.046;2022-07-04T13:27:57;5.60;;;4.35;;
31716;SDS011;18301;51.076;17.046;2022-07-04T13:32:59;4.80;;;4.32;;
31716;SDS011;18301;51.076;17.046;2022-07-04T13:38:00;8.82;;;4.18;;
31716;SDS011;18301;51.076;17.046;2022-07-04T13:43:02;7.88;;;3.92;;
31716;SDS011;18301;51.076;17.046;2022-07-04T13:48:12;8.18;;;4.47;;
31716;SDS011;18301;51.076;17.046;2022-07-04T13:53:14;5.15;;;4.45;;
31716;SDS011;18301;51.076;17.046;2022-07-04T13:58:15;8.02;;;3.97;;
31716;SDS011;18301;51.076;17.046;2022-07-04T14:03:17;5.13;;;3.92;;
31716;SDS011;18301;51.076;17.046;2022-07-04T14:08:18;4.63;;;3.72;;
31716;SDS011;18301;51.076;17.046;2022-07-04T14:13:20;4.55;;;3.38;;
31716;SDS011;18301;51.076;17.046;2022-07-04T14:18:22;7.85;;;3.83;;
31716;SDS011;18301;51.076;17.046;2022-07-04T14:23:23;4.25;;;3.58;;
31716;SDS011;18301;51.076;17.046;2022-07-04T14:28:43;4.65;;;3.40;;
31716;SDS011;18301;51.076;17.046;2022-07-04T14:33:45;3.47;;;3.17;;
31716;SDS011;18301;51.076;17.046;2022-07-04T14:38:47;5.80;;;3.28;;
31716;SDS011;18301;51.076;17.046;2022-07-04T14:43:48;7.93;;;3.55;;
31716;SDS011;18301;51.076;17.046;2022-07-04T14:48:50;3.90;;;3.60;;
31716;SDS011;18301;51.076;17.046;2022-07-04T14:53:51;3.35;;;3.10;;
31716;SDS011;18301;51.076;17.046;2022-07-04T14:58:53;5.18;;;3.55;;
31716;SDS011;18301;51.076;17.046;2022-07-04T15:03:55;5.22;;;3.50;;
31716;SDS011;18301;51.076;17.046;2022-07-04T15:08:57;4.28;;;3.47;;
31716;SDS011;18301;51.076;17.046;2022-07-04T15:13:59;4.18;;;3.40;;
31716;SDS011;18301;51.076;17.046;2022-07-04T15:19:00;9.38;;;3.70;;
31716;SDS011;18301;51.076;17.046;2022-07-04T15:24:02;3.80;;;3.35;;
31716;SDS011;18301;51.076;17.046;2022-07-04T15:29:13;3.88;;;3.15;;
31716;SDS011;18301;51.076;17.046;2022-07-04T15:34:15;4.13;;;3.33;;
31716;SDS011;18301;51.076;17.046;2022-07-04T15:39:17;4.20;;;2.80;;
31716;SDS011;18301;51.076;17.046;2022-07-04T15:44:18;4.97;;;3.38;;
31716;SDS011;18301;51.076;17.046;2022-07-04T15:49:22;3.30;;;3.00;;
31716;SDS011;18301;51.076;17.046;2022-07-04T15:54:24;3.88;;;3.20;;
31716;SDS011;18301;51.076;17.046;2022-07-04T15:59:25;4.75;;;3.20;;
31716;SDS011;18301;51.076;17.046;2022-07-04T16:04:27;6.07;;;3.13;;
31716;SDS011;18301;51.076;17.046;2022-07-04T16:09:28;3.17;;;2.95;;
31716;SDS011;18301;51.076;17.046;2022-07-04T16:14:31;3.20;;;2.90;;
31716;SDS011;18301;51.076;17.046;2022-07-04T16:19:32;6.03;;;3.25;;
31716;SDS011;18301;51.076;17.046;2022-07-04T16:24:34;3.67;;;3.30;;
31716;SDS011;18301;51.076;17.046;2022-07-04T16:29:35;4.28;;;3.65;;
31716;SDS011;18301;51.076;17.046;2022-07-04T16:34:37;5.97;;;3.38;;
31716;SDS011;18301;51.076;17.046;2022-07-04T16:39:39;4.30;;;3.20;;
31716;SDS011;18301;51.076;17.046;2022-07-04T16:44:40;3.78;;;3.47;;
31716;SDS011;18301;51.076;17.046;2022-07-04T16:49:42;3.70;;;3.10;;
31716;SDS011;18301;51.076;17.046;2022-07-04T16:54:44;5.70;;;3.50;;
31716;SDS011;18301;51.076;17.046;2022-07-04T16:59:45;5.85;;;3.05;;
31716;SDS011;18301;51.076;17.046;2022-07-04T17:04:47;4.28;;;3.90;;
31716;SDS011;18301;51.076;17.046;2022-07-04T17:09:49;3.50;;;3.20;;
31716;SDS011;18301;51.076;17.046;2022-07-04T17:14:50;4.43;;;3.53;;
31716;SDS011;18301;51.076;17.046;2022-07-04T17:19:55;4.22;;;3.38;;
31716;SDS011;18301;51.076;17.046;2022-07-04T17:24:57;3.67;;;3.38;;
31716;SDS011;18301;51.076;17.046;2022-07-04T17:29:59;5.07;;;3.70;;
31716;SDS011;18301;51.076;17.046;2022-07-04T17:35:00;4.18;;;3.78;;
31716;SDS011;18301;51.076;17.046;2022-07-04T17:40:05;4.00;;;3.70;;
31716;SDS011;18301;51.076;17.046;2022-07-04T17:45:06;4.18;;;3.00;;
31716;SDS011;18301;51.076;17.046;2022-07-04T17:50:08;6.18;;;3.30;;
31716;SDS011;18301;51.076;17.046;2022-07-04T17:55:11;3.80;;;3.45;;
31716;SDS011;18301;51.076;17.046;2022-07-04T18:00:15;6.22;;;4.38;;
31716;SDS011;18301;51.076;17.046;2022-07-04T18:05:16;4.47;;;4.05;;
31716;SDS011;18301;51.076;17.046;2022-07-04T18:10:18;4.50;;;4.10;;
31716;SDS011;18301;51.076;17.046;2022-07-04T18:15:19;5.80;;;4.68;;
31716;SDS011;18301;51.076;17.046;2022-07-04T18:20:21;8.70;;;4.55;;
31716;SDS011;18301;51.076;17.046;2022-07-04T18:25:23;8.23;;;4.60;;
31716;SDS011;18301;51.076;17.046;2022-07-04T18:30:25;5.45;;;4.05;;
31716;SDS011;18301;51.076;17.046;2022-07-04T18:35:33;4.72;;;3.70;;
31716;SDS011;18301;51.076;17.046;2022-07-04T18:40:35;7.65;;;4.38;;
31716;SDS011;18301;51.076;17.046;2022-07-04T18:45:56;6.88;;;4.93;;
31716;SDS011;18301;51.076;17.046;2022-07-04T18:50:59;7.82;;;4.60;;
31716;SDS011;18301;51.076;17.046;2022-07-04T18:56:01;6.90;;;4.88;;
31716;SDS011;18301;51.076;17.046;2022-07-04T19:01:03;6.45;;;4.60;;
31716;SDS011;18301;51.076;17.046;2022-07-04T19:06:05;6.97;;;4.90;;
31716;SDS011;18301;51.076;17.046;2022-07-04T19:11:07;5.72;;;4.80;;
31716;SDS011;18301;51.076;17.046;2022-07-04T19:16:08;5.95;;;5.35;;
31716;SDS011;18301;51.076;17.046;2022-07-04T19:21:18;5.32;;;4.82;;
31716;SDS011;18301;51.076;17.046;2022-07-04T19:26:22;7.10;;;5.10;;
31716;SDS011;18301;51.076;17.046;2022-07-04T19:31:24;8.15;;;5.50;;
31716;SDS011;18301;51.076;17.046;2022-07-04T19:36:26;6.85;;;6.10;;
31716;SDS011;18301;51.076;17.046;2022-07-04T19:41:27;7.28;;;5.72;;
31716;SDS011;18301;51.076;17.046;2022-07-04T19:46:29;6.15;;;5.20;;
31716;SDS011;18301;51.076;17.046;2022-07-04T19:51:30;6.20;;;5.25;;
31716;SDS011;18301;51.076;17.046;2022-07-04T19:56:32;6.60;;;5.88;;
31716;SDS011;18301;51.076;17.046;2022-07-04T20:01:33;5.90;;;5.40;;
31716;SDS011;18301;51.076;17.046;2022-07-04T20:06:35;6.70;;;5.97;;
31716;SDS011;18301;51.076;17.046;2022-07-04T20:11:36;7.80;;;6.20;;
31716;SDS011;18301;51.076;17.046;2022-07-04T20:16:39;7.47;;;5.90;;
31716;SDS011;18301;51.076;17.046;2022-07-04T20:21:46;7.80;;;5.90;;
31716;SDS011;18301;51.076;17.046;2022-07-04T20:26:47;7.72;;;6.30;;
31716;SDS011;18301;51.076;17.046;2022-07-04T20:32:09;6.63;;;5.97;;
31716;SDS011;18301;51.076;17.046;2022-07-04T20:37:11;6.30;;;5.70;;
31716;SDS011;18301;51.076;17.046;2022-07-04T20:42:12;8.43;;;6.57;;
31716;SDS011;18301;51.076;17.046;2022-07-04T20:47:14;6.88;;;6.18;;
31716;SDS011;18301;51.076;17.046;2022-07-04T20:52:16;7.70;;;7.00;;
31716;SDS011;18301;51.076;17.046;2022-07-04T20:57:18;9.20;;;6.97;;
31716;SDS011;18301;51.076;17.046;2022-07-04T21:02:20;7.53;;;6.47;;
31716;SDS011;18301;51.076;17.046;2022-07-04T21:07:23;6.78;;;6.18;;
31716;SDS011;18301;51.076;17.046;2022-07-04T21:12:24;8.25;;;6.55;;
31716;SDS011;18301;51.076;17.046;2022-07-04T21:17:26;9.20;;;7.05;;
31716;SDS011;18301;51.076;17.046;2022-07-04T21:22:27;6.88;;;6.22;;
31716;SDS011;18301;51.076;17.046;2022-07-04T21:27:29;7.20;;;6.43;;
31716;SDS011;18301;51.076;17.046;2022-07-04T21:32:32;6.18;;;5.60;;
31716;SDS011;18301;51.076;17.046;2022-07-04T21:37:34;6.80;;;6.20;;
31716;SDS011;18301;51.076;17.046;2022-07-04T21:42:35;7.10;;;5.72;;
31716;SDS011;18301;51.076;17.046;2022-07-04T21:47:37;6.97;;;6.10;;
31716;SDS011;18301;51.076;17.046;2022-07-04T21:52:38;8.55;;;6.50;;
31716;SDS011;18301;51.076;17.046;2022-07-04T21:57:40;6.80;;;6.18;;
31716;SDS011;18301;51.076;17.046;2022-07-04T22:02:42;6.78;;;6.10;;
31716;SDS011;18301;51.076;17.046;2022-07-04T22:07:44;7.90;;;6.25;;
31716;SDS011;18301;51.076;17.046;2022-07-04T22:12:45;8.27;;;6.18;;
31716;SDS011;18301;51.076;17.046;2022-07-04T22:17:47;6.50;;;5.90;;
31716;SDS011;18301;51.076;17.046;2022-07-04T22:22:49;6.80;;;6.10;;
31716;SDS011;18301;51.076;17.046;2022-07-04T22:27:50;8.15;;;6.55;;
31716;SDS011;18301;51.076;17.046;2022-07-04T22:32:52;6.82;;;5.68;;
31716;SDS011;18301;51.076;17.046;2022-07-04T22:37:53;6.72;;;5.38;;
31716;SDS011;18301;51.076;17.046;2022-07-04T22:42:55;9.38;;;5.85;;
31716;SDS011;18301;51.076;17.046;2022-07-04T22:47:56;5.90;;;5.32;;
31716;SDS011;18301;51.076;17.046;2022-07-04T22:53:00;6.15;;;5.55;;
31716;SDS011;18301;51.076;17.046;2022-07-04T22:58:02;7.60;;;5.28;;
31716;SDS011;18301;51.076;17.046;2022-07-04T23:03:03;5.68;;;5.15;;
31716;SDS011;18301;51.076;17.046;2022-07-04T23:08:05;8.25;;;6.22;;
31716;SDS011;18301;51.076;17.046;2022-07-04T23:13:06;6.28;;;5.57;;
31716;SDS011;18301;51.076;17.046;2022-07-04T23:18:08;8.52;;;6.22;;
31716;SDS011;18301;51.076;17.046;2022-07-04T23:23:09;7.18;;;6.47;;
31716;SDS011;18301;51.076;17.046;2022-07-04T23:28:11;9.57;;;8.05;;
31716;SDS011;18301;51.076;17.046;2022-07-04T23:33:12;8.45;;;7.60;;
31716;SDS011;18301;51.076;17.046;2022-07-04T23:38:14;11.50;;;8.68;;
31716;SDS011;18301;51.076;17.046;2022-07-04T23:43:15;9.32;;;7.95;;
31716;SDS011;18301;51.076;17.046;2022-07-04T23:48:17;8.90;;;7.28;;
31716;SDS011;18301;51.076;17.046;2022-07-04T23:53:18;8.00;;;7.20;;
31716;SDS011;18301;51.076;17.046;2022-07-04T23:58:20;8.63;;;7.55;;
